Time;durP1;ratioP1;P1;durP2;ratioP2;P2;SDS_P1;SDS_P2;PMS_P1;PMS_P2;Temp;Humidity;BMP_temperature;BMP_pressure;BME280_temperature;BME280_humidity;BME280_pressure;Samples;Min_cycle;Max_cycle;Signal;HPM_P1;HPM_P2
2022/12/30 00:00:19;;;;;;;27.52;17.83;;;;;;;0.96;100.00;98780.16;5033680;28;20064;-68
2022/12/30 00:03:24;;;;;;;27.02;17.58;;;;;;;0.91;100.00;98782.03;5049791;28;20087;-67
2022/12/30 00:06:16;;;;;;;33.95;20.50;;;;;;;0.87;100.00;98786.41;5050613;28;20116;-67
2022/12/30 00:09:01;;;;;;;29.67;18.85;;;;;;;0.82;100.00;98790.84;5034208;28;20107;-68
2022/12/30 00:11:46;;;;;;;29.30;18.67;;;;;;;0.78;100.00;98795.28;5050338;28;20111;-68
2022/12/30 00:33:07;;;;;;;31.17;19.40;;;;;;;0.74;100.00;98785.91;5049813;28;20053;-68
2022/12/30 00:35:52;;;;;;;32.08;20.25;;;;;;;0.81;100.00;98781.44;5039484;28;20569;-69
2022/12/30 00:38:36;;;;;;;29.92;19.35;;;;;;;0.77;100.00;98787.59;5048560;28;20124;-68
2022/12/30 00:44:24;;;;;;;31.90;19.70;;;;;;;0.73;100.00;98792.78;5053919;28;20033;-69
2022/12/30 00:47:09;;;;;;;30.25;19.17;;;;;;;0.72;100.00;98785.97;5053680;28;20064;-68
2022/12/30 00:56:10;;;;;;;31.73;19.38;;;;;;;0.76;100.00;98789.31;5043374;28;20045;-67
2022/12/30 00:58:55;;;;;;;32.15;19.88;;;;;;;0.73;100.00;98786.81;5052626;28;20051;-67
2022/12/30 01:01:40;;;;;;;36.60;20.83;;;;;;;0.70;100.00;98784.31;5053492;28;20044;-68
2022/12/30 01:04:25;;;;;;;31.20;18.77;;;;;;;0.67;100.00;98781.84;5053963;28;20444;-69
2022/12/30 01:07:09;;;;;;;31.50;20.05;;;;;;;0.61;100.00;98780.25;5041359;28;20053;-67
2022/12/30 01:09:56;;;;;;;33.58;19.92;;;;;;;0.66;100.00;98786.13;5053727;28;20036;-67
2022/12/30 01:12:40;;;;;;;28.48;17.63;;;;;;;0.68;100.00;98781.78;5053195;28;20041;-67
2022/12/30 01:15:25;;;;;;;30.40;19.08;;;;;;;0.61;100.00;98781.09;5038998;28;20472;-69
2022/12/30 01:18:09;;;;;;;30.83;19.63;;;;;;;0.61;100.00;98778.53;5053523;28;20405;-68
2022/12/30 01:20:58;;;;;;;30.55;19.58;;;;;;;0.64;100.00;98776.75;5053251;28;20049;-68
2022/12/30 01:23:44;;;;;;;31.65;19.48;;;;;;;0.69;100.00;98777.44;5052305;28;20049;-67
2022/12/30 01:26:29;;;;;;;29.25;18.73;;;;;;;0.74;100.00;98773.03;5053776;28;20135;-68
2022/12/30 01:29:26;;;;;;;30.67;19.73;;;;;;;0.73;100.00;98768.75;5040557;28;20037;-68
2022/12/30 01:32:16;;;;;;;31.13;19.88;;;;;;;0.63;100.00;98769.91;5051906;28;20037;-67
2022/12/30 01:35:01;;;;;;;29.67;19.33;;;;;;;0.62;100.00;98779.34;5052938;28;20041;-69
2022/12/30 01:37:45;;;;;;;34.15;20.45;;;;;;;0.62;100.00;98779.34;5053171;28;20115;-67
2022/12/30 01:40:39;;;;;;;32.83;18.95;;;;;;;0.62;100.00;98766.47;5041615;28;20041;-68
2022/12/30 01:43:41;;;;;;;34.63;20.13;;;;;;;0.55;100.00;98770.97;5050233;28;20184;-67
2022/12/30 01:46:30;;;;;;;30.67;19.70;;;;;;;0.72;100.00;98765.31;5049961;28;20124;-67
2022/12/30 01:49:14;;;;;;;32.97;20.50;;;;;;;0.73;100.00;98763.59;5051376;28;20045;-67
2022/12/30 01:51:59;;;;;;;34.22;20.95;;;;;;;0.76;100.00;98767.81;5041936;28;20049;-67
2022/12/30 01:54:45;;;;;;;30.02;18.80;;;;;;;0.83;100.00;98769.34;5042073;28;20041;-67
2022/12/30 01:57:31;;;;;;;34.83;20.90;;;;;;;0.81;100.00;98768.53;5046189;28;20045;-67
2022/12/30 02:00:16;;;;;;;34.00;20.88;;;;;;;0.90;100.00;98775.19;5046350;28;20044;-67
2022/12/30 02:03:01;;;;;;;32.00;20.63;;;;;;;1.03;100.00;98767.94;5050887;28;20041;-68
2022/12/30 02:05:47;;;;;;;31.38;19.50;;;;;;;1.05;100.00;98777.31;5052693;28;20083;-68
2022/12/30 02:08:35;;;;;;;31.50;19.80;;;;;;;1.14;100.00;98772.78;5051737;28;20049;-67
2022/12/30 02:11:19;;;;;;;34.97;21.20;;;;;;;1.25;100.00;98778.44;5058574;28;20050;-68
2022/12/30 02:14:04;;;;;;;29.75;19.15;;;;;;;1.14;100.00;98783.09;5048128;28;20053;-67
2022/12/30 02:16:55;;;;;;;32.30;20.40;;;;;;;1.12;100.00;98774.53;5052150;28;20045;-68
2022/12/30 02:20:23;;;;;;;31.98;19.33;;;;;;;1.15;100.00;98775.31;5047980;28;20175;-67
2022/12/30 02:23:26;;;;;;;32.42;19.20;;;;;;;1.25;100.00;98769.84;5037625;28;20417;-67
2022/12/30 02:26:13;;;;;;;;;;;;;;;1.18;100.00;98779.50;5027903;28;20049;-68
2022/12/30 02:29:38;;;;;;;32.78;20.15;;;;;;;1.18;100.00;98774.34;5030806;28;19941;-69
2022/12/30 02:32:29;;;;;;;35.22;21.08;;;;;;;1.07;100.00;98775.53;5015435;28;20127;-68
2022/12/30 02:35:23;;;;;;;33.30;21.02;;;;;;;1.07;100.00;98783.28;5015641;28;20599;-68
2022/12/30 02:38:25;;;;;;;31.80;20.08;;;;;;;1.15;100.00;98785.63;5020012;28;20187;-67
2022/12/30 02:45:32;;;;;;;36.53;20.58;;;;;;;1.17;100.00;98801.06;5029266;28;20099;-67
2022/12/30 02:48:30;;;;;;;34.10;19.83;;;;;;;1.19;100.00;98804.44;5025358;28;20068;-68
2022/12/30 02:54:21;;;;;;;38.33;22.48;;;;;;;1.12;100.00;98815.84;5018085;28;20136;-67
2022/12/30 02:57:21;;;;;;;36.97;21.05;;;;;;;1.15;100.00;98816.59;5025210;28;20049;-67
2022/12/30 03:03:59;;;;;;;39.92;22.55;;;;;;;1.17;100.00;98813.97;5050707;28;20523;-69
2022/12/30 03:07:05;;;;;;;38.05;21.02;;;;;;;1.24;100.00;98810.31;5049993;28;20043;-67
2022/12/30 03:13:25;;;;;;;36.92;22.42;;;;;;;1.18;100.00;98807.91;5040665;28;20053;-67
2022/12/30 03:16:28;;;;;;;39.25;22.13;;;;;;;1.28;100.00;98801.59;5049748;28;20045;-67
2022/12/30 03:19:17;;;;;;;33.75;19.77;;;;;;;1.42;100.00;98793.41;5050811;28;20097;-68
2022/12/30 03:22:02;;;;;;;37.22;21.30;;;;;;;1.39;100.00;98796.09;5046313;28;20088;-66
2022/12/30 03:28:13;;;;;;;39.38;22.98;;;;;;;1.38;100.00;98802.16;5028662;28;20179;-68
2022/12/30 03:31:05;;;;;;;35.83;21.48;;;;;;;1.35;100.00;98800.50;5008992;28;20052;-67
2022/12/30 03:33:50;;;;;;;37.55;22.15;;;;;;;1.37;100.00;98805.66;5033642;28;20573;-68
2022/12/30 03:36:42;;;;;;;39.35;21.77;;;;;;;1.38;100.00;98803.88;5033109;28;20045;-68
2022/12/30 03:39:40;;;;;;;41.30;21.30;;;;;;;1.50;100.00;98795.78;5028575;28;20057;-68
2022/12/30 03:42:27;;;;;;;39.75;22.17;;;;;;;1.52;100.00;98800.91;5018987;28;20444;-68
2022/12/30 03:45:13;;;;;;;38.45;21.58;;;;;;;1.55;100.00;98809.38;5014391;28;20061;-68
2022/12/30 03:47:58;;;;;;;36.95;21.67;;;;;;;1.51;100.00;98823.28;5014220;28;20077;-67
2022/12/30 03:50:44;;;;;;;36.65;21.38;;;;;;;1.46;100.00;98822.59;5027971;28;20056;-67
2022/12/30 03:53:29;;;;;;;37.72;21.70;;;;;;;1.37;100.00;98820.28;5028273;28;20156;-67
2022/12/30 03:56:14;;;;;;;41.13;22.63;;;;;;;1.37;100.00;98821.13;5038947;28;20166;-68
2022/12/30 03:58:58;;;;;;;41.70;23.08;;;;;;;1.37;100.00;98823.72;5028510;28;20098;-67
2022/12/30 04:01:43;;;;;;;36.72;21.55;;;;;;;1.43;100.00;98831.28;5045932;28;20045;-68
2022/12/30 04:04:28;;;;;;;37.88;20.85;;;;;;;1.55;100.00;98832.63;5050233;28;20041;-68
2022/12/30 04:07:13;;;;;;;36.75;21.23;;;;;;;1.50;100.00;98837.13;5038404;28;20091;-68
2022/12/30 04:09:57;;;;;;;35.55;21.67;;;;;;;1.42;100.00;98839.91;5050147;28;20408;-68
2022/12/30 04:12:42;;;;;;;36.03;21.23;;;;;;;1.39;100.00;98834.00;5050150;28;20219;-68
2022/12/30 04:15:26;;;;;;;39.90;21.90;;;;;;;1.34;100.00;98836.69;5049605;28;20052;-68
2022/12/30 04:18:11;;;;;;;42.80;22.85;;;;;;;1.39;100.00;98849.50;5050118;28;20049;-68
2022/12/30 04:20:56;;;;;;;46.25;24.17;;;;;;;1.32;100.00;98862.56;5049630;28;20037;-67
2022/12/30 04:23:41;;;;;;;44.35;23.00;;;;;;;1.42;100.00;98857.16;5049946;28;20045;-68
2022/12/30 04:26:25;;;;;;;48.13;24.58;;;;;;;1.51;100.00;98856.00;5050200;28;20041;-67
2022/12/30 04:29:11;;;;;;;44.13;23.35;;;;;;;1.59;100.00;98864.38;5038021;28;20178;-67
2022/12/30 04:31:56;;;;;;;43.33;23.40;;;;;;;1.49;100.00;98868.97;5049341;28;20488;-67
2022/12/30 04:34:41;;;;;;;40.53;23.05;;;;;;;1.59;100.00;98878.16;5049353;28;20049;-68
2022/12/30 04:37:25;;;;;;;42.20;22.95;;;;;;;1.53;100.00;98870.59;5038167;28;20041;-67
2022/12/30 04:40:10;;;;;;;43.83;22.65;;;;;;;1.61;100.00;98878.09;5037031;28;20049;-68
2022/12/30 04:42:55;;;;;;;44.70;23.77;;;;;;;1.63;100.00;98880.63;5048663;28;20052;-68
2022/12/30 04:45:39;;;;;;;47.33;23.27;;;;;;;1.59;100.00;98878.16;5033903;28;20103;-67
2022/12/30 04:48:24;;;;;;;38.45;20.80;;;;;;;1.71;100.00;98879.50;5048628;28;20037;-67
2022/12/30 04:51:09;;;;;;;48.47;24.67;;;;;;;1.67;100.00;98887.38;5049763;28;20564;-67
2022/12/30 04:53:53;;;;;;;41.53;22.35;;;;;;;1.62;100.00;98886.72;5049191;28;20041;-67
2022/12/30 04:56:38;;;;;;;44.45;22.98;;;;;;;1.62;100.00;98887.53;5049655;28;20629;-67
2022/12/30 04:59:22;;;;;;;39.47;21.88;;;;;;;1.65;100.00;98889.19;5048788;28;20476;-67
2022/12/30 05:02:07;;;;;;;40.88;19.77;;;;;;;1.80;100.00;98898.19;5049853;28;20041;-67
2022/12/30 05:04:52;;;;;;;41.63;21.65;;;;;;;2.21;100.00;98897.81;5048830;28;20139;-67
2022/12/30 05:07:36;;;;;;;36.72;17.67;;;;;;;2.41;100.00;98893.75;5077142;28;20541;-67
2022/12/30 05:10:21;;;;;;;28.20;15.52;;;;;;;2.58;100.00;98895.75;5041524;28;20128;-67
2022/12/30 05:13:06;;;;;;;30.65;16.88;;;;;;;2.67;100.00;98903.22;5046584;28;20481;-67
2022/12/30 05:15:50;;;;;;;33.88;18.45;;;;;;;2.68;100.00;98909.22;5045858;28;20033;-67
2022/12/30 05:18:35;;;;;;;38.05;19.67;;;;;;;2.74;100.00;98927.16;5043251;28;20053;-68
2022/12/30 05:21:19;;;;;;;40.75;20.80;;;;;;;2.71;100.00;98924.63;5038931;28;20110;-68
2022/12/30 05:27:08;;;;;;;40.83;20.52;;;;;;;2.81;100.00;98914.81;5049023;28;20488;-68
2022/12/30 05:29:52;;;;;;;42.05;22.20;;;;;;;2.83;100.00;98931.16;5051992;28;20045;-68
2022/12/30 05:32:37;;;;;;;45.22;22.27;;;;;;;2.65;100.00;98940.38;5041102;28;20127;-68
2022/12/30 05:35:22;;;;;;;40.47;20.50;;;;;;;2.77;100.00;98940.00;5053111;28;20124;-67
2022/12/30 05:38:07;;;;;;;40.67;20.52;;;;;;;2.68;100.00;98929.91;5052688;28;20045;-67
2022/12/30 05:40:52;;;;;;;38.65;21.15;;;;;;;2.35;100.00;98933.56;5053187;28;20091;-67
2022/12/30 05:43:37;;;;;;;42.10;21.95;;;;;;;2.27;100.00;98953.66;5052693;28;20120;-67
2022/12/30 05:46:22;;;;;;;43.22;22.73;;;;;;;2.47;100.00;98960.78;5052648;28;20433;-68
2022/12/30 05:49:07;;;;;;;41.13;20.80;;;;;;;2.62;100.00;98967.19;5052776;28;20048;-67
2022/12/30 05:51:52;;;;;;;29.95;16.60;;;;;;;2.63;100.00;98974.06;5041201;28;20052;-68
2022/12/30 05:54:36;;;;;;;33.25;17.85;;;;;;;2.64;100.00;99009.41;5052581;28;20037;-68
2022/12/30 05:57:21;;;;;;;37.13;20.05;;;;;;;2.59;100.00;98996.59;5052126;28;20179;-68
2022/12/30 06:00:06;;;;;;;29.80;15.32;;;;;;;2.64;100.00;99000.78;5051713;28;20053;-68
2022/12/30 06:02:51;;;;;;;34.78;20.20;;;;;;;2.72;100.00;99001.38;5051496;28;20080;-68
2022/12/30 06:05:36;;;;;;;35.92;18.33;;;;;;;2.76;100.00;99000.38;5048084;28;20098;-68
2022/12/30 06:08:20;;;;;;;39.05;21.27;;;;;;;2.67;100.00;99011.88;5051226;28;20085;-68
2022/12/30 06:11:07;;;;;;;38.05;22.77;;;;;;;2.36;100.00;99002.50;5050016;28;20071;-66
2022/12/30 06:13:51;;;;;;;35.33;19.02;;;;;;;2.22;100.00;99013.25;5051275;28;20068;-67
2022/12/30 06:16:36;;;;;;;37.85;20.05;;;;;;;2.40;100.00;99018.78;5051295;28;20115;-66
2022/12/30 06:19:20;;;;;;;42.75;23.60;;;;;;;2.49;100.00;99031.41;5030693;28;20053;-68
2022/12/30 06:22:05;;;;;;;41.30;22.10;;;;;;;2.41;100.00;99041.16;5047325;28;20052;-68
2022/12/30 06:24:50;;;;;;;38.03;20.02;;;;;;;2.17;100.00;99059.09;5052122;28;20037;-68
2022/12/30 06:27:34;;;;;;;41.38;21.63;;;;;;;2.19;100.00;99049.53;5039833;28;20516;-68
2022/12/30 06:30:19;;;;;;;43.40;23.10;;;;;;;1.92;100.00;99044.28;5038634;28;20397;-67
2022/12/30 06:33:04;;;;;;;46.63;24.65;;;;;;;1.48;100.00;99038.56;5052045;28;20484;-67
2022/12/30 06:35:49;;;;;;;34.17;20.00;;;;;;;1.35;100.00;99030.28;5041460;28;20550;-67
2022/12/30 06:38:34;;;;;;;33.15;18.63;;;;;;;1.60;100.00;99023.63;5051511;28;20040;-67
2022/12/30 06:41:18;;;;;;;39.90;22.15;;;;;;;1.92;100.00;99052.03;5051853;28;20045;-67
2022/12/30 06:44:03;;;;;;;46.08;24.77;;;;;;;1.87;100.00;99059.94;5051850;28;20073;-67
2022/12/30 06:46:48;;;;;;;35.60;20.85;;;;;;;1.70;100.00;99066.41;5024176;28;20489;-67
2022/12/30 06:49:33;;;;;;;39.22;23.13;;;;;;;1.62;100.00;99068.34;5051520;28;20128;-67
2022/12/30 06:52:17;;;;;;;33.17;19.58;;;;;;;1.88;100.00;99082.28;5050475;28;20098;-67
2022/12/30 06:55:04;;;;;;;43.10;22.88;;;;;;;2.00;100.00;99069.91;5051521;28;20052;-68
2022/12/30 06:57:49;;;;;;;41.53;22.42;;;;;;;2.00;100.00;99077.66;5051109;28;20041;-68
2022/12/30 07:00:34;;;;;;;44.33;23.08;;;;;;;1.99;100.00;99074.25;5051058;28;20045;-68
2022/12/30 07:03:19;;;;;;;49.40;23.88;;;;;;;2.02;100.00;99069.00;5050839;28;20128;-68
2022/12/30 07:06:05;;;;;;;45.10;24.85;;;;;;;1.92;100.00;99068.41;5050217;28;20045;-67
2022/12/30 07:08:49;;;;;;;48.50;25.00;;;;;;;1.68;100.00;99059.59;5051577;28;20124;-68
2022/12/30 07:11:34;;;;;;;42.35;23.13;;;;;;;1.34;100.00;99062.16;5051423;28;20063;-68
2022/12/30 07:14:19;;;;;;;49.28;26.73;;;;;;;1.17;100.00;99056.59;5050773;28;20377;-69
2022/12/30 07:17:04;;;;;;;41.47;22.83;;;;;;;1.20;100.00;99065.13;5050824;28;20128;-67
2022/12/30 07:19:48;;;;;;;44.42;23.33;;;;;;;1.31;100.00;99071.72;5051642;28;20045;-67
2022/12/30 07:22:33;;;;;;;46.85;25.67;;;;;;;1.29;100.00;99078.69;5049348;28;20486;-67
2022/12/30 07:25:18;;;;;;;45.15;22.80;;;;;;;1.44;100.00;99088.59;5049661;28;20068;-67
2022/12/30 07:28:04;;;;;;;36.85;20.83;;;;;;;1.86;100.00;99098.72;5051194;28;20049;-67
2022/12/30 07:30:50;;;;;;;35.17;19.85;;;;;;;2.20;100.00;99100.38;5038813;28;20487;-67
2022/12/30 07:33:34;;;;;;;37.53;20.73;;;;;;;2.36;100.00;99099.91;5050869;28;20135;-67
2022/12/30 07:36:19;;;;;;;40.40;21.20;;;;;;;2.40;100.00;99088.59;5050758;28;20040;-68
2022/12/30 07:39:04;;;;;;;40.45;21.77;;;;;;;2.46;100.00;99096.19;5040441;28;20040;-67
2022/12/30 07:41:48;;;;;;;35.42;18.55;;;;;;;2.49;100.00;99090.06;5049569;28;20055;-67
2022/12/30 07:44:33;;;;;;;32.33;18.77;;;;;;;2.70;100.00;99093.72;5049430;28;20048;-67
2022/12/30 07:47:18;;;;;;;31.77;17.85;;;;;;;2.87;100.00;99094.94;5051264;28;20171;-67
2022/12/30 07:50:05;;;;;;;38.00;20.33;;;;;;;2.96;100.00;99094.66;5037714;28;20535;-68
2022/12/30 07:52:50;;;;;;;29.83;16.60;;;;;;;2.97;100.00;99098.09;5049541;28;20056;-69
2022/12/30 07:55:39;;;;;;;42.13;21.42;;;;;;;3.02;100.00;99098.81;5048393;28;20431;-68
2022/12/30 07:58:24;;;;;;;37.92;20.52;;;;;;;3.01;100.00;99105.72;5048959;28;20040;-68
2022/12/30 08:01:11;;;;;;;32.38;17.67;;;;;;;3.20;100.00;99118.91;5049845;28;20073;-68
2022/12/30 08:03:56;;;;;;;30.00;17.15;;;;;;;3.27;100.00;99124.75;5036865;28;20075;-68
2022/12/30 08:06:40;;;;;;;35.15;20.55;;;;;;;3.40;100.00;99129.50;5050095;28;20148;-68
2022/12/30 08:09:25;;;;;;;35.78;20.88;;;;;;;3.44;100.00;99133.69;5050351;28;20045;-69
2022/12/30 08:12:10;;;;;;;39.70;22.88;;;;;;;3.60;100.00;99130.59;5043645;28;20053;-68
2022/12/30 08:14:55;;;;;;;40.17;23.88;;;;;;;3.62;100.00;99136.56;5039519;28;20408;-69
2022/12/30 08:17:39;;;;;;;35.95;19.33;;;;;;;3.62;99.74;99137.44;5049588;28;20382;-68
2022/12/30 08:20:24;;;;;;;38.25;20.83;;;;;;;3.62;99.27;99144.34;5022737;28;20071;-68
2022/12/30 08:23:09;;;;;;;35.17;18.55;;;;;;;3.59;99.65;99147.03;5050184;28;20528;-68
2022/12/30 08:25:53;;;;;;;39.15;20.65;;;;;;;3.66;99.02;99153.69;5034877;28;20122;-69
2022/12/30 08:28:38;;;;;;;38.72;20.02;;;;;;;3.64;99.18;99158.09;5048989;28;20130;-69
2022/12/30 08:31:25;;;;;;;34.53;18.50;;;;;;;3.75;99.06;99161.19;5050135;28;20049;-69
2022/12/30 08:34:10;;;;;;;41.60;21.05;;;;;;;3.78;99.19;99155.03;5049922;28;20465;-69
2022/12/30 08:36:55;;;;;;;45.03;25.20;;;;;;;3.86;99.45;99154.75;5049816;28;20048;-69
2022/12/30 08:39:40;;;;;;;48.17;24.63;;;;;;;3.96;100.00;99153.56;5022375;28;20072;-69
2022/12/30 08:42:25;;;;;;;38.35;19.55;;;;;;;3.99;100.00;99155.19;5049591;28;20044;-69
2022/12/30 08:45:10;;;;;;;36.47;20.23;;;;;;;4.15;100.00;99161.53;5048906;28;20082;-69
2022/12/30 08:47:54;;;;;;;34.58;18.58;;;;;;;3.92;100.00;99170.09;5049544;28;20042;-70
2022/12/30 08:50:40;;;;;;;36.38;19.60;;;;;;;3.81;100.00;99175.66;5050003;28;20488;-69
2022/12/30 08:53:25;;;;;;;39.83;19.92;;;;;;;3.90;100.00;99175.34;5043504;28;20044;-69
2022/12/30 08:56:19;;;;;;;33.13;18.83;;;;;;;3.80;100.00;99186.94;5048773;28;20044;-68
2022/12/30 08:59:04;;;;;;;36.17;19.25;;;;;;;3.90;100.00;99195.25;5037120;28;20053;-69
2022/12/30 09:01:48;;;;;;;35.65;19.58;;;;;;;4.09;100.00;99189.41;5035030;28;20040;-69
2022/12/30 09:04:33;;;;;;;31.55;17.80;;;;;;;4.29;100.00;99196.50;5053424;28;20052;-69
2022/12/30 09:07:18;;;;;;;35.53;18.90;;;;;;;4.52;100.00;99195.66;5038129;28;20419;-69
2022/12/30 09:10:03;;;;;;;32.55;17.23;;;;;;;4.75;100.00;99191.34;5053241;28;20080;-69
2022/12/30 09:12:47;;;;;;;38.38;19.85;;;;;;;5.08;97.78;99194.47;5052350;28;20140;-69
2022/12/30 09:15:32;;;;;;;46.05;23.45;;;;;;;5.49;94.45;99204.13;5053171;28;20049;-70
2022/12/30 09:18:16;;;;;;;53.88;26.13;;;;;;;5.74;92.96;99204.00;5052359;28;20051;-70
2022/12/30 09:21:02;;;;;;;47.38;24.42;;;;;;;6.27;90.24;99201.78;5052541;28;20385;-71
2022/12/30 09:23:48;;;;;;;55.63;27.13;;;;;;;6.70;87.60;99192.97;5052886;28;20041;-72
2022/12/30 09:26:32;;;;;;;50.97;26.58;;;;;;;7.21;86.78;99200.19;5053588;28;20045;-71
2022/12/30 09:29:18;;;;;;;38.55;19.98;;;;;;;7.65;83.39;99198.09;5041647;28;20064;-72
2022/12/30 09:32:02;;;;;;;35.97;19.92;;;;;;;8.18;80.93;99199.81;5052807;28;20595;-70
2022/12/30 09:34:47;;;;;;;41.40;21.58;;;;;;;8.25;80.71;99185.53;5039709;28;20141;-70
2022/12/30 09:37:32;;;;;;;43.15;20.77;;;;;;;8.68;78.49;99187.66;5053657;28;20053;-70
2022/12/30 09:40:23;;;;;;;33.30;18.00;;;;;;;8.72;78.03;99183.09;5052695;28;20574;-70
2022/12/30 09:43:37;;;;;;;37.53;19.67;;;;;;;8.97;76.48;99176.53;5052652;28;20533;-70
2022/12/30 09:46:28;;;;;;;32.60;17.20;;;;;;;8.63;77.07;99187.06;5030340;28;20085;-70
2022/12/30 09:49:34;;;;;;;30.02;16.95;;;;;;;8.48;77.22;99192.16;5030541;28;20053;-69
2022/12/30 09:52:27;;;;;;;33.80;18.65;;;;;;;8.61;77.52;99187.16;5022800;28;20102;-70
2022/12/30 09:55:19;;;;;;;38.55;20.02;;;;;;;8.70;76.21;99187.59;5016004;28;20152;-69
2022/12/30 09:58:11;;;;;;;35.65;19.95;;;;;;;8.67;76.66;99187.72;5030056;28;20526;-69
2022/12/30 10:01:24;;;;;;;36.72;18.77;;;;;;;8.37;78.75;99191.88;5030720;28;20053;-69
2022/12/30 10:04:16;;;;;;;24.77;14.18;;;;;;;8.36;78.25;99192.78;5005991;28;20402;-69
2022/12/30 10:07:21;;;;;;;30.75;15.93;;;;;;;8.07;79.67;99189.94;5030152;28;20460;-71
2022/12/30 10:10:12;;;;;;;25.80;14.55;;;;;;;7.91;80.88;99189.88;5029767;28;20520;-68
2022/12/30 10:13:27;;;;;;;26.92;14.70;;;;;;;7.95;81.29;99184.41;5016041;28;20068;-69
2022/12/30 10:16:22;;;;;;;29.35;15.43;;;;;;;7.71;82.72;99191.72;5015841;28;20046;-70
2022/12/30 10:20:05;;;;;;;30.08;16.60;;;;;;;8.16;80.48;99184.22;5015759;28;20164;-69
2022/12/30 10:22:57;;;;;;;29.85;15.23;;;;;;;8.08;80.86;99186.41;4968783;28;20077;-69
2022/12/30 10:25:49;;;;;;;27.73;14.82;;;;;;;7.81;81.08;99194.72;4990298;28;20516;-69
2022/12/30 10:28:38;;;;;;;22.98;14.13;;;;;;;8.25;81.55;99191.59;4990075;28;20137;-69
2022/12/30 10:31:26;;;;;;;31.80;17.52;;;;;;;9.59;74.88;99190.53;4976752;28;20061;-72
2022/12/30 10:34:16;;;;;;;28.42;16.30;;;;;;;10.67;70.24;99187.69;4990367;28;20208;-71
2022/12/30 10:37:11;;;;;;;23.13;12.88;;;;;;;11.58;67.38;99189.81;4989666;28;20050;-71
2022/12/30 10:39:56;;;;;;;28.23;14.82;;;;;;;12.22;65.08;99180.38;4976745;28;20120;-71
2022/12/30 10:42:59;;;;;;;22.88;13.27;;;;;;;12.30;63.46;99167.53;4990666;28;20054;-71
2022/12/30 10:45:59;;;;;;;26.58;15.65;;;;;;;12.91;62.37;99168.56;4990420;28;20050;-71
2022/12/30 10:49:15;;;;;;;26.20;14.10;;;;;;;13.36;62.72;99164.47;4980385;28;20081;-71
2022/12/30 10:52:01;;;;;;;26.30;14.02;;;;;;;13.69;59.46;99170.00;4990217;28;20141;-72
2022/12/30 10:54:48;;;;;;;24.08;13.70;;;;;;;13.47;60.27;99163.66;4990046;28;20057;-72
2022/12/30 10:57:35;;;;;;;29.65;14.93;;;;;;;13.95;58.29;99175.09;5045414;28;20045;-72
2022/12/30 11:00:20;;;;;;;26.67;13.68;;;;;;;14.60;57.66;99168.38;5051223;28;20041;-71
2022/12/30 11:03:30;;;;;;;23.83;12.05;;;;;;;14.65;56.73;99166.22;5050756;28;20534;-72
2022/12/30 11:06:30;;;;;;;24.88;13.95;;;;;;;14.90;56.90;99161.66;5050357;28;20041;-71
2022/12/30 11:09:21;;;;;;;23.95;13.80;;;;;;;15.45;55.74;99167.81;5043433;28;20500;-73
2022/12/30 11:15:26;;;;;;;28.33;16.20;;;;;;;16.02;53.68;99162.25;5044768;28;20442;-71
2022/12/30 11:18:15;;;;;;;21.38;12.07;;;;;;;16.06;55.31;99157.56;5049919;28;20480;-70
2022/12/30 11:21:00;;;;;;;26.73;13.45;;;;;;;15.84;54.71;99160.19;5050108;28;20049;-71
2022/12/30 11:23:44;;;;;;;23.83;11.45;;;;;;;16.31;54.23;99160.72;5049995;28;20049;-70
2022/12/30 11:26:32;;;;;;;18.60;10.15;;;;;;;16.63;55.77;99151.75;5049415;28;20044;-72
2022/12/30 11:29:21;;;;;;;27.17;14.50;;;;;;;16.57;51.41;99157.59;5039848;28;20110;-72
2022/12/30 11:32:11;;;;;;;24.92;12.38;;;;;;;16.57;50.64;99165.53;5049607;28;20439;-71
2022/12/30 11:34:55;;;;;;;29.70;14.05;;;;;;;16.45;51.91;99147.13;5051429;28;20102;-71
2022/12/30 11:37:41;;;;;;;25.08;13.18;;;;;;;16.76;52.53;99148.91;5050865;28;20510;-73
2022/12/30 11:40:32;;;;;;;24.38;14.07;;;;;;;17.11;51.11;99144.09;5049664;28;20436;-71
2022/12/30 11:43:20;;;;;;;24.02;12.48;;;;;;;17.18;52.02;99152.31;5049174;28;20095;-72
2022/12/30 11:46:08;;;;;;;22.92;12.45;;;;;;;17.71;52.86;99145.72;5050114;28;20051;-72
2022/12/30 11:49:17;;;;;;;21.95;12.10;;;;;;;17.77;48.96;99146.97;5050589;28;20554;-72
2022/12/30 11:52:04;;;;;;;25.45;11.95;;;;;;;17.51;48.77;99139.63;5040526;28;20052;-72
2022/12/30 11:54:58;;;;;;;21.50;10.90;;;;;;;17.60;50.65;99130.81;5049597;28;20059;-72
2022/12/30 11:57:46;;;;;;;15.75;8.52;;;;;;;17.63;51.50;99135.00;5049316;28;20047;-72
2022/12/30 12:00:38;;;;;;;18.40;10.35;;;;;;;17.66;49.45;99142.66;5050246;28;20055;-72
2022/12/30 12:03:24;;;;;;;23.33;12.13;;;;;;;17.42;48.41;99135.16;5049930;28;20044;-71
2022/12/30 12:06:10;;;;;;;21.90;10.88;;;;;;;16.84;52.33;99137.63;5050475;28;20048;-71
2022/12/30 12:09:01;;;;;;;17.33;8.85;;;;;;;17.65;50.36;99133.03;5039699;28;20143;-72
2022/12/30 12:11:47;;;;;;;19.17;10.70;;;;;;;17.67;50.67;99132.91;5050193;28;20057;-72
2022/12/30 12:14:51;;;;;;;21.48;11.90;;;;;;;17.49;50.29;99138.94;5049874;28;20480;-71
2022/12/30 12:17:45;;;;;;;17.42;9.35;;;;;;;17.52;51.45;99130.69;5049879;28;20052;-72
2022/12/30 12:20:51;;;;;;;18.00;10.35;;;;;;;16.15;54.55;99140.91;5050178;28;20060;-71
2022/12/30 12:23:58;;;;;;;25.38;12.55;;;;;;;16.74;50.21;99150.84;5033964;28;20068;-72
2022/12/30 12:26:54;;;;;;;31.27;14.23;;;;;;;15.98;52.48;99151.09;5047462;28;20137;-72
2022/12/30 12:29:39;;;;;;;21.40;10.25;;;;;;;15.98;52.87;99155.53;5039163;28;20453;-72
2022/12/30 12:32:29;;;;;;;20.67;10.57;;;;;;;16.65;51.42;99146.38;5047066;28;20080;-73
2022/12/30 12:35:31;;;;;;;27.08;14.00;;;;;;;16.33;52.63;99156.97;5033281;28;20045;-72
2022/12/30 12:38:27;;;;;;;27.08;12.95;;;;;;;15.98;53.18;99159.03;5050598;28;20075;-72
2022/12/30 12:41:21;;;;;;;20.13;10.93;;;;;;;15.91;54.48;99147.28;5020775;28;20103;-71
2022/12/30 12:44:43;;;;;;;24.92;12.52;;;;;;;15.82;55.11;99151.53;5041856;28;20064;-72
2022/12/30 12:47:42;;;;;;;18.48;9.93;;;;;;;15.89;54.47;99151.88;5033971;28;20051;-71
2022/12/30 12:51:20;;;;;;;22.77;11.50;;;;;;;16.75;51.48;99147.22;5041416;28;20080;-71
2022/12/30 12:54:17;;;;;;;22.27;11.07;;;;;;;16.13;50.90;99167.47;5018893;28;20053;-72
2022/12/30 12:57:31;;;;;;;21.77;10.20;;;;;;;15.48;53.78;99157.84;5031520;28;20043;-72
2022/12/30 13:00:21;;;;;;;26.10;12.80;;;;;;;14.56;55.82;99159.88;5017340;28;20072;-72
2022/12/30 13:03:24;;;;;;;22.02;10.27;;;;;;;13.93;60.03;99166.44;5030759;28;20500;-71
2022/12/30 13:06:25;;;;;;;25.42;11.48;;;;;;;13.11;60.33;99160.16;5024512;28;20045;-70
2022/12/30 13:09:32;;;;;;;23.70;12.60;;;;;;;12.23;63.50;99157.53;5026219;28;20046;-70
2022/12/30 13:12:27;;;;;;;20.00;10.40;;;;;;;11.94;65.24;99164.69;5024226;28;20057;-69
2022/12/30 13:15:22;;;;;;;25.45;12.98;;;;;;;11.07;67.24;99170.34;5030971;28;20196;-68
2022/12/30 13:18:16;;;;;;;24.05;12.38;;;;;;;10.61;70.37;99161.84;5016636;28;20451;-69
2022/12/30 13:21:03;;;;;;;23.83;13.10;;;;;;;9.93;73.68;99172.00;5030559;28;20064;-68
2022/12/30 13:23:55;;;;;;;22.80;12.40;;;;;;;10.19;72.88;99164.34;5030803;28;20695;-69
2022/12/30 13:26:39;;;;;;;22.02;11.52;;;;;;;9.77;75.01;99166.84;5034249;28;20052;-68
2022/12/30 13:29:33;;;;;;;24.50;12.98;;;;;;;9.46;75.96;99165.09;5042306;28;20044;-68
2022/12/30 13:32:27;;;;;;;27.40;13.70;;;;;;;9.07;77.91;99164.66;5052635;28;20040;-69
2022/12/30 13:35:34;;;;;;;26.25;12.90;;;;;;;8.97;78.40;99166.94;5051635;28;20293;-69
2022/12/30 13:38:43;;;;;;;25.65;13.57;;;;;;;8.79;79.32;99168.78;5052559;28;20052;-67
2022/12/30 13:41:45;;;;;;;26.83;14.02;;;;;;;8.03;82.58;99177.97;5052834;28;20073;-68
2022/12/30 13:44:42;;;;;;;23.60;11.68;;;;;;;8.29;83.71;99170.56;5051658;28;20051;-68
2022/12/30 13:47:40;;;;;;;23.98;11.68;;;;;;;8.01;83.66;99178.06;5052842;28;20053;-68
2022/12/30 13:50:29;;;;;;;27.80;13.52;;;;;;;7.82;84.79;99171.16;5041753;28;20053;-68
2022/12/30 13:53:35;;;;;;;29.88;13.50;;;;;;;7.56;85.29;99168.09;5052538;28;20136;-69